createdAt,value
2022-10-25T00:00:07.942Z,9.6
2022-10-25T00:01:12.557Z,10
2022-10-25T00:02:27.407Z,9.9
2022-10-25T00:03:31.506Z,10.4
2022-10-25T00:04:36.052Z,11.7
2022-10-25T00:05:40.213Z,10
2022-10-25T00:06:44.873Z,10.4
2022-10-25T00:07:49.615Z,10.3
2022-10-25T00:08:54.077Z,10.6
2022-10-25T00:09:58.614Z,11.3
2022-10-25T00:11:02.778Z,11.1
2022-10-25T00:12:07.348Z,11.6
2022-10-25T00:13:12.032Z,12.1
2022-10-25T00:14:16.476Z,10.9
2022-10-25T00:15:20.524Z,10.9
2022-10-25T00:16:24.736Z,11.8
2022-10-25T00:17:29.317Z,11.9
2022-10-25T00:18:33.913Z,12.8
2022-10-25T00:19:38.612Z,12.6
2022-10-25T00:20:43.028Z,12
2022-10-25T00:21:47.214Z,12.8
2022-10-25T00:22:51.846Z,12.1
2022-10-25T00:23:56.289Z,11.6
2022-10-25T00:25:00.545Z,11.9
2022-10-25T00:26:05.022Z,12.2
2022-10-25T00:27:09.069Z,13.8
2022-10-25T00:28:13.289Z,12.6
2022-10-25T00:29:17.990Z,13
2022-10-25T00:30:22.413Z,13.9
2022-10-25T00:31:26.702Z,13.1
2022-10-25T00:32:31.093Z,14
2022-10-25T00:33:35.181Z,13.9
2022-10-25T00:34:39.350Z,12.8
2022-10-25T00:35:43.480Z,12.5
2022-10-25T00:36:47.553Z,12
2022-10-25T00:37:51.657Z,11.7
2022-10-25T00:38:56.296Z,12.4
2022-10-25T00:40:00.388Z,11.6
2022-10-25T00:41:05.061Z,11.2
2022-10-25T00:42:09.645Z,11.7
2022-10-25T00:43:14.256Z,11.5
2022-10-25T00:44:28.932Z,11.6
2022-10-25T00:45:36.061Z,11.6
2022-10-25T00:46:40.148Z,12.3
2022-10-25T00:47:44.620Z,12.7
2022-10-25T00:48:48.909Z,11.1
2022-10-25T00:50:03.702Z,11.7
2022-10-25T00:51:15.965Z,11.7
2022-10-25T00:52:20.524Z,12.2
2022-10-25T00:53:25.172Z,11.9
2022-10-25T00:54:29.708Z,12.6
2022-10-25T00:55:36.941Z,13.3
2022-10-25T00:56:41.515Z,12.9
2022-10-25T00:57:46.364Z,13.6
2022-10-25T00:58:50.656Z,12.9
2022-10-25T00:59:55.277Z,14.5
2022-10-25T01:00:59.844Z,13.2
2022-10-25T01:02:04.571Z,14.2
2022-10-25T01:03:09.073Z,14.3
2022-10-25T01:04:13.554Z,14.3
2022-10-25T01:05:17.628Z,12.7
2022-10-25T01:06:21.780Z,13
2022-10-25T01:07:28.948Z,13.3
2022-10-25T01:08:33.504Z,12.8
2022-10-25T01:09:37.666Z,13.7
2022-10-25T01:10:42.225Z,12
2022-10-25T01:11:46.367Z,12.9
2022-10-25T01:12:51.396Z,12.4
2022-10-25T01:13:55.536Z,12.7
2022-10-25T01:14:59.552Z,12.2
2022-10-25T01:16:03.730Z,12.9
2022-10-25T01:17:13.392Z,12.7
2022-10-25T01:18:26.084Z,11.6
2022-10-25T01:19:38.313Z,11.7
2022-10-25T01:20:53.209Z,12.5
2022-10-25T01:22:02.937Z,11.4
2022-10-25T01:23:07.589Z,12.3
2022-10-25T01:24:20.223Z,12.8
2022-10-25T01:25:29.909Z,12
2022-10-25T01:26:42.028Z,11.7
2022-10-25T01:27:51.707Z,10.9
2022-10-25T01:29:00.884Z,11.3
2022-10-25T01:30:13.173Z,11.6
2022-10-25T01:31:23.477Z,11.2
2022-10-25T01:32:27.976Z,12
2022-10-25T01:33:42.676Z,12.6
2022-10-25T01:34:55.060Z,11.7
2022-10-25T01:36:09.769Z,11.7
2022-10-25T01:37:14.385Z,12.4
2022-10-25T01:38:18.902Z,12.5
2022-10-25T01:39:33.717Z,11.5
2022-10-25T01:40:45.926Z,12.5
2022-10-25T01:41:50.044Z,12
2022-10-25T01:43:04.924Z,12.2
2022-10-25T01:44:09.436Z,11.6
2022-10-25T01:45:21.733Z,12.1
2022-10-25T01:46:28.928Z,11.4
2022-10-25T01:47:33.465Z,11.1
2022-10-25T01:48:38.123Z,11.3
2022-10-25T01:49:47.756Z,10.8
2022-10-25T01:51:00.045Z,10.5
2022-10-25T01:52:09.621Z,11.3
2022-10-25T01:53:13.844Z,11.7
2022-10-25T01:54:18.425Z,11.3
2022-10-25T01:55:22.988Z,10.2
2022-10-25T01:56:35.204Z,10.3
2022-10-25T01:57:42.338Z,11.2
2022-10-25T01:58:49.647Z,12.4
2022-10-25T02:00:04.304Z,12.3
2022-10-25T02:01:14.235Z,12.6
2022-10-25T02:02:23.673Z,11.3
2022-10-25T02:03:33.393Z,11.8
2022-10-25T02:04:40.596Z,10.2
2022-10-25T02:05:50.145Z,12.1
2022-10-25T02:07:05.024Z,11.5
2022-10-25T02:08:12.169Z,11.4
2022-10-25T02:09:26.961Z,10.4
2022-10-25T02:10:34.110Z,11.3
2022-10-25T02:11:41.272Z,10.9
2022-10-25T02:12:45.703Z,11.5
2022-10-25T02:13:50.008Z,10.5
2022-10-25T02:14:59.597Z,10.5
2022-10-25T02:16:06.966Z,10
2022-10-25T02:17:11.460Z,10
2022-10-25T02:18:16.084Z,11.1
2022-10-25T02:19:20.656Z,11.1
2022-10-25T02:20:25.258Z,11.5
2022-10-25T02:21:29.928Z,11
2022-10-25T02:22:34.468Z,11.5
2022-10-25T02:23:38.476Z,11.1
2022-10-25T02:24:42.668Z,11.7
2022-10-25T02:25:47.222Z,11.7
2022-10-25T02:26:51.215Z,11.6
2022-10-25T02:27:55.364Z,12.3
2022-10-25T02:28:59.420Z,11.4
2022-10-25T02:30:03.526Z,12.2
2022-10-25T02:31:08.227Z,11.8
2022-10-25T02:32:12.776Z,12.8
2022-10-25T02:33:16.856Z,12.7
2022-10-25T02:34:20.928Z,11.4
2022-10-25T02:35:25.168Z,12.6
2022-10-25T02:36:29.644Z,11.7
2022-10-25T02:37:33.684Z,12.4
2022-10-25T02:38:37.912Z,11.1
2022-10-25T02:39:42.469Z,12.2
2022-10-25T02:40:47.084Z,11.1
2022-10-25T02:41:51.740Z,11.6
2022-10-25T02:42:56.392Z,12.5
2022-10-25T02:44:00.756Z,12.7
2022-10-25T02:45:04.878Z,11.8
2022-10-25T02:46:09.530Z,11.6
2022-10-25T02:47:14.175Z,11.4
2022-10-25T02:48:18.720Z,11.9
2022-10-25T02:49:22.812Z,12.8
2022-10-25T02:50:27.404Z,11.8
2022-10-25T02:51:32.044Z,11.9
2022-10-25T02:52:36.801Z,12.8
2022-10-25T02:53:41.212Z,11.8
2022-10-25T02:54:45.847Z,11.6
2022-10-25T02:55:50.660Z,10.7
2022-10-25T02:57:00.085Z,11.1
2022-10-25T02:58:04.833Z,11.4
2022-10-25T02:59:09.404Z,10.7
2022-10-25T03:00:14.134Z,11.4
2022-10-25T03:01:18.748Z,12.2
2022-10-25T03:02:23.384Z,11.1
2022-10-25T03:03:27.820Z,11.3
2022-10-25T03:04:32.353Z,12
2022-10-25T03:05:36.903Z,11
2022-10-25T03:06:41.072Z,11.3
2022-10-25T03:07:45.640Z,11.8
2022-10-25T03:08:50.196Z,10.9
2022-10-25T03:09:54.704Z,10.6
2022-10-25T03:10:58.929Z,9.9
2022-10-25T03:12:03.497Z,10.1
2022-10-25T03:13:08.199Z,11.6
2022-10-25T03:14:12.753Z,11.6
2022-10-25T03:15:17.268Z,10.9
2022-10-25T03:16:21.932Z,10.7
2022-10-25T03:17:26.452Z,11.2
2022-10-25T03:18:30.544Z,11.5
2022-10-25T03:19:35.219Z,11.5
2022-10-25T03:20:39.863Z,10.7
2022-10-25T03:21:44.410Z,10.3
2022-10-25T03:22:49.039Z,10.9
2022-10-25T03:23:53.539Z,10.1
2022-10-25T03:24:57.790Z,10
2022-10-25T03:26:02.237Z,10.6
2022-10-25T03:27:06.877Z,10.9
2022-10-25T03:28:11.442Z,10.9
2022-10-25T03:29:15.511Z,10.2
2022-10-25T03:30:20.184Z,11.4
2022-10-25T03:31:24.802Z,11.4
2022-10-25T03:32:29.291Z,10.5
2022-10-25T03:33:33.398Z,10
2022-10-25T03:34:37.994Z,10.5
2022-10-25T03:35:42.646Z,10.6
2022-10-25T03:36:47.099Z,9.8
2022-10-25T03:37:51.217Z,9.1
2022-10-25T03:38:55.814Z,10.2
2022-10-25T03:40:00.406Z,10.4
2022-10-25T03:41:05.098Z,9.6
2022-10-25T03:42:09.606Z,9.6
2022-10-25T03:43:14.293Z,10
2022-10-25T03:44:18.830Z,10.5
2022-10-25T03:45:23.383Z,9.8
2022-10-25T03:46:28.074Z,9.8
2022-10-25T03:47:32.650Z,10.3
2022-10-25T03:48:37.075Z,9.6
2022-10-25T03:49:41.148Z,8.1
2022-10-25T03:50:45.387Z,9.6
2022-10-25T03:51:51.098Z,10.1
2022-10-25T03:52:53.999Z,10.1
2022-10-25T03:53:58.054Z,9.1
2022-10-25T03:55:02.154Z,9.1
2022-10-25T03:56:06.896Z,9
2022-10-25T03:57:11.431Z,9.3
2022-10-25T03:58:16.178Z,10.4
2022-10-25T03:59:20.884Z,9
2022-10-25T04:00:25.231Z,8.8
2022-10-25T04:01:30.002Z,9.7
2022-10-25T04:02:34.431Z,9.7
2022-10-25T04:03:38.866Z,9.6
2022-10-25T04:04:43.574Z,10.3
2022-10-25T04:05:48.142Z,10.2
2022-10-25T04:06:52.630Z,8.9
2022-10-25T04:07:56.750Z,9
2022-10-25T04:09:00.735Z,9.4
2022-10-25T04:10:05.070Z,9.8
2022-10-25T04:11:09.834Z,10.6
2022-10-25T04:12:14.284Z,9.4
2022-10-25T04:13:18.783Z,8.8
2022-10-25T04:14:22.961Z,8.4
2022-10-25T04:15:27.527Z,9.5
2022-10-25T04:16:32.194Z,9.8
2022-10-25T04:17:36.679Z,9.1
2022-10-25T04:18:40.790Z,8.6
2022-10-25T04:19:45.431Z,9.4
2022-10-25T04:20:49.911Z,9.3
2022-10-25T04:21:54.207Z,8.9
2022-10-25T04:22:58.657Z,9.2
2022-10-25T04:24:04.204Z,9.4
2022-10-25T04:25:06.999Z,8.9
2022-10-25T04:26:11.470Z,9.2
2022-10-25T04:27:16.026Z,9.1
2022-10-25T04:28:20.295Z,9.9
2022-10-25T04:29:24.932Z,9.1
2022-10-25T04:30:29.260Z,8.8
2022-10-25T04:31:33.360Z,9.3
2022-10-25T04:32:37.554Z,9.5
2022-10-25T04:33:44.015Z,9.2
2022-10-25T04:34:49.174Z,9
2022-10-25T04:35:53.651Z,9.3
2022-10-25T04:36:57.730Z,9.2
2022-10-25T04:38:01.898Z,10.7
2022-10-25T04:39:06.064Z,9.8
2022-10-25T04:40:10.637Z,9.2
2022-10-25T04:41:15.222Z,9.5
2022-10-25T04:42:19.435Z,9.3
2022-10-25T04:43:24.166Z,9.5
2022-10-25T04:44:28.643Z,9.1
2022-10-25T04:45:33.173Z,10
2022-10-25T04:46:37.690Z,8.8
2022-10-25T04:47:41.818Z,8.9
2022-10-25T04:48:46.292Z,9.7
2022-10-25T04:49:50.518Z,9.3
2022-10-25T04:50:55.410Z,9.1
2022-10-25T04:51:59.604Z,9.6
2022-10-25T04:53:03.906Z,8.8
2022-10-25T04:54:08.326Z,8.2
2022-10-25T04:55:12.522Z,8.3
2022-10-25T04:56:17.351Z,8.4
2022-10-25T04:57:21.802Z,8.6
2022-10-25T04:58:28.729Z,8.7
2022-10-25T04:59:31.115Z,9
2022-10-25T05:00:35.554Z,8.5
2022-10-25T05:01:40.268Z,9.6
2022-10-25T05:02:45.504Z,9.6
2022-10-25T05:03:49.306Z,10.6
2022-10-25T05:04:54.073Z,9.1
2022-10-25T05:05:58.362Z,10
2022-10-25T05:07:10.175Z,9
2022-10-25T05:08:14.362Z,9.9
2022-10-25T05:09:18.798Z,8.7
2022-10-25T05:10:22.890Z,8.8
2022-10-25T05:11:27.356Z,9.7
2022-10-25T05:12:31.726Z,10.6
2022-10-25T05:13:36.451Z,9.6
2022-10-25T05:16:27.647Z,9
2022-10-25T05:17:31.702Z,8.6
2022-10-25T05:18:35.778Z,9
2022-10-25T05:19:39.946Z,8.8
2022-10-25T05:20:48.674Z,9.3
2022-10-25T05:21:55.892Z,9.3
2022-10-25T05:23:00.434Z,10.2
2022-10-25T05:24:04.946Z,10.9
2022-10-25T05:25:09.306Z,9.2
2022-10-25T05:30:12.881Z,9.2
2022-10-25T05:32:19.476Z,9.2
2022-10-25T05:34:59.586Z,10.5
2022-10-25T05:36:04.422Z,9.7
2022-10-25T05:37:08.918Z,10.1
2022-10-25T05:38:13.438Z,9.8
2022-10-25T05:39:44.674Z,11
2022-10-25T05:40:50.216Z,11.4
2022-10-25T05:41:55.462Z,10.3
2022-10-25T05:43:00.106Z,9.4
2022-10-25T05:44:04.952Z,10.5
2022-10-25T05:45:10.886Z,10.4
2022-10-25T05:46:15.833Z,10.6
2022-10-25T05:47:23.718Z,10.7
2022-10-25T05:48:27.954Z,12.6
2022-10-25T05:49:33.193Z,10.2
2022-10-25T05:51:08.313Z,9.8
2022-10-25T05:52:12.258Z,11.2
2022-10-25T05:53:16.783Z,10.5
2022-10-25T05:54:21.442Z,11.2
2022-10-25T05:55:26.122Z,11.4
2022-10-25T06:04:11.132Z,11.4
2022-10-25T06:06:17.594Z,11.4
2022-10-25T06:12:28.808Z,10.5
2022-10-25T06:13:32.986Z,10.7
2022-10-25T06:14:37.391Z,11.7
2022-10-25T06:15:41.670Z,11
2022-10-25T06:21:06.835Z,12
2022-10-25T06:22:11.250Z,11
2022-10-25T06:24:17.526Z,11
2022-10-25T06:26:34.279Z,11
2022-10-25T06:28:41.594Z,11
2022-10-25T06:41:05.666Z,10.3
2022-10-25T06:42:52.052Z,10.3
2022-10-25T06:43:56.609Z,11
2022-10-25T07:21:02.802Z,9
2022-10-25T07:23:14.141Z,9
2022-10-25T07:25:30.934Z,9
2022-10-25T07:27:37.597Z,9
2022-10-25T07:29:44.581Z,9
2022-10-25T07:44:34.531Z,9.3
2022-10-25T07:46:40.983Z,9.3
2022-10-25T07:49:32.689Z,10.4
2022-10-25T07:50:36.898Z,9.2
2022-10-25T07:51:41.480Z,9.4
2022-10-25T07:52:45.998Z,9.6
2022-10-25T07:53:59.685Z,8.9
2022-10-25T07:55:04.014Z,8.5
2022-10-25T07:56:08.549Z,8.8
2022-10-25T07:57:13.285Z,9.9
2022-10-25T07:58:17.818Z,8.7
2022-10-25T07:59:33.549Z,9.4
2022-10-25T08:00:38.601Z,9.1
2022-10-25T08:01:42.946Z,8.9
2022-10-25T08:02:47.366Z,10.4
2022-10-25T08:03:51.857Z,9.2
2022-10-25T08:05:18.334Z,8.4
2022-10-25T08:06:22.462Z,8.7
2022-10-25T08:07:27.402Z,8.5
2022-10-25T08:08:32.230Z,8.7
2022-10-25T08:09:38.707Z,9.2
2022-10-25T08:10:53.689Z,9.7
2022-10-25T08:11:58.017Z,8.7
2022-10-25T08:13:02.257Z,8.7
2022-10-25T08:14:06.929Z,9.3
2022-10-25T08:15:11.461Z,9.9
2022-10-25T08:16:18.776Z,9.5
2022-10-25T08:17:23.322Z,9.4
2022-10-25T08:18:28.489Z,9.7
2022-10-25T08:19:32.960Z,9.1
2022-10-25T08:21:01.038Z,8.7
2022-10-25T08:21:46.957Z,9.6
2022-10-25T08:22:51.161Z,9
2022-10-25T08:23:58.357Z,9.4
2022-10-25T08:25:03.141Z,9.8
2022-10-25T08:26:07.626Z,9.1
2022-10-25T08:27:21.765Z,10
2022-10-25T08:28:26.477Z,9.5
2022-10-25T08:29:33.596Z,9.6
2022-10-25T08:30:38.117Z,10.1
2022-10-25T08:31:42.297Z,9.2
2022-10-25T08:34:12.795Z,8.7
2022-10-25T08:35:16.866Z,9.8
2022-10-25T08:36:21.829Z,8.8
2022-10-25T08:37:26.157Z,8
2022-10-25T08:39:58.781Z,9.8
2022-10-25T08:41:03.509Z,10.2
2022-10-25T08:42:13.069Z,9.6
2022-10-25T08:43:19.872Z,8.7
2022-10-25T08:44:36.733Z,10.5
2022-10-25T08:45:47.164Z,11.4
2022-10-25T08:47:00.945Z,11.5
2022-10-25T08:48:14.109Z,11.2
2022-10-25T08:49:18.160Z,11.1
2022-10-25T08:50:22.697Z,10.9
2022-10-25T08:52:37.217Z,10.9
2022-10-25T08:53:43.267Z,9.5
2022-10-25T08:54:47.733Z,8.5
2022-10-25T08:57:15.686Z,9.3
2022-10-25T08:58:19.427Z,9
2022-10-25T08:59:34.170Z,8.4
2022-10-25T09:00:38.686Z,7.9
2022-10-25T09:01:44.893Z,7.4
2022-10-25T09:02:48.882Z,6.8
2022-10-25T09:03:53.029Z,7.2
2022-10-25T09:04:57.438Z,7.3
2022-10-25T09:06:01.581Z,7.5
2022-10-25T09:07:26.828Z,7.9
2022-10-25T09:08:38.848Z,7.7
2022-10-25T09:09:45.985Z,8.3
2022-10-25T09:10:50.163Z,8.4
2022-10-25T09:12:04.932Z,8.1
2022-10-25T09:13:19.592Z,8.1
2022-10-25T09:14:34.472Z,9.2
2022-10-25T09:15:49.220Z,8.7
2022-10-25T09:17:01.433Z,7.9
2022-10-25T09:18:11.653Z,8.1
2022-10-25T09:19:15.621Z,6.9
2022-10-25T09:20:30.453Z,7.4
2022-10-25T09:21:34.521Z,7.3
2022-10-25T09:22:44.742Z,7
2022-10-25T09:23:48.853Z,7
2022-10-25T09:25:01.573Z,7.3
2022-10-25T09:26:08.608Z,8.2
2022-10-25T09:27:17.957Z,7.3
2022-10-25T09:28:30.031Z,7.1
2022-10-25T09:29:44.880Z,7.1
2022-10-25T09:30:56.989Z,7.8
2022-10-25T09:32:01.144Z,6.9
2022-10-25T09:34:57.694Z,7.7
2022-10-25T09:36:01.918Z,7.5
2022-10-25T09:37:06.481Z,7.6
2022-10-25T09:38:11.095Z,8.1
2022-10-25T09:41:19.529Z,7.9
2022-10-25T09:42:26.765Z,8.9
2022-10-25T09:43:31.366Z,9.4
2022-10-25T09:45:42.716Z,9.4
2022-10-25T09:46:49.677Z,8.6
2022-10-25T09:47:59.468Z,8.8
2022-10-25T09:49:06.605Z,9.2
2022-10-25T09:50:10.816Z,8.3
2022-10-25T09:51:25.576Z,9.3
2022-10-25T09:52:35.101Z,8.3
2022-10-25T09:53:49.905Z,7.4
2022-10-25T09:54:53.980Z,8.3
2022-10-25T09:56:03.628Z,7.4
2022-10-25T09:57:07.660Z,7.4
2022-10-25T09:58:11.965Z,6.9
2022-10-25T09:59:21.592Z,7.4
2022-10-25T10:00:27.713Z,7.7
2022-10-25T10:02:34.525Z,7.7
2022-10-25T10:04:41.029Z,7.7
2022-10-25T10:05:49.730Z,6
2022-10-25T10:06:54.084Z,6.3
2022-10-25T10:07:58.335Z,6.5
2022-10-25T10:09:02.889Z,5.8
2022-10-25T10:10:07.537Z,6.5
2022-10-25T10:11:16.985Z,6.6
2022-10-25T10:12:21.180Z,6.9
2022-10-25T10:13:28.357Z,7.4
2022-10-25T10:14:43.208Z,7.5
2022-10-25T10:15:52.887Z,7.5
2022-10-25T10:18:19.764Z,6.4
2022-10-25T10:19:29.400Z,6.6
2022-10-25T10:20:33.641Z,6.1
2022-10-25T10:21:38.790Z,6
2022-10-25T10:22:57.604Z,6.1
2022-10-25T10:24:02.095Z,6.1
2022-10-25T10:25:06.672Z,6.2
2022-10-25T10:26:10.889Z,6.1
2022-10-25T10:28:19.568Z,6.1
2022-10-25T10:29:23.987Z,5.9
2022-10-25T10:30:28.177Z,6.2
2022-10-25T10:31:32.253Z,6.4
2022-10-25T10:32:36.440Z,5.6
2022-10-25T10:33:44.716Z,5.8
2022-10-25T10:35:51.304Z,5.8
2022-10-25T10:37:57.926Z,5.8
2022-10-25T10:39:26.712Z,5.3
2022-10-25T10:40:30.911Z,5.6
2022-10-25T10:41:35.476Z,5.8
2022-10-25T10:42:39.560Z,6
2022-10-25T10:43:43.708Z,5.9
2022-10-25T10:44:58.837Z,6.5
2022-10-25T10:46:06.010Z,6.3
2022-10-25T10:47:10.352Z,6.6
2022-10-25T10:48:14.728Z,6.3
2022-10-25T10:49:18.760Z,6.2
2022-10-25T10:52:48.746Z,6.5
2022-10-25T10:53:58.198Z,6.4
2022-10-25T10:55:12.925Z,7
2022-10-25T10:56:33.745Z,6
2022-10-25T10:57:39.752Z,7.1
2022-10-25T10:58:43.986Z,6.3
2022-10-25T10:59:51.208Z,7
2022-10-25T11:00:55.588Z,5.8
2022-10-25T11:02:01.037Z,6.2
2022-10-25T11:03:15.485Z,5.9
2022-10-25T11:04:30.252Z,6
2022-10-25T11:05:34.361Z,6.7
2022-10-25T11:06:38.968Z,5.9
2022-10-25T11:07:56.706Z,5.2
2022-10-25T11:09:00.901Z,4.6
2022-10-25T11:10:10.531Z,5.3
2022-10-25T11:11:17.809Z,4.9
2022-10-25T11:12:22.277Z,5.4
2022-10-25T11:13:30.704Z,5.5
2022-10-25T11:14:35.185Z,5.2
2022-10-25T11:15:39.756Z,4.5
2022-10-25T11:16:54.456Z,4.7
2022-10-25T11:18:03.988Z,4.5
2022-10-25T11:19:21.772Z,4.4
2022-10-25T11:21:33.343Z,4.4
2022-10-25T11:23:44.988Z,4.4
2022-10-25T11:25:10.982Z,2.8
2022-10-25T11:26:25.624Z,2.4
2022-10-25T11:27:34.317Z,2.1
2022-10-25T11:28:47.148Z,1.9
2022-10-25T11:29:59.443Z,1.9
2022-10-25T11:31:09.119Z,1.9
2022-10-25T11:32:24.044Z,1.9
2022-10-25T11:33:36.033Z,1.8
2022-10-25T11:34:50.935Z,2.1
2022-10-25T11:36:03.724Z,2
2022-10-25T11:37:13.320Z,2.3
2022-10-25T11:38:17.388Z,2.1
2022-10-25T11:39:32.383Z,1.7
2022-10-25T11:40:47.245Z,2
2022-10-25T11:42:01.655Z,1.9
2022-10-25T11:43:13.495Z,2.4
2022-10-25T11:44:18.213Z,2.2
2022-10-25T11:45:25.772Z,2.2
2022-10-25T11:46:59.751Z,2.1
2022-10-25T11:48:09.436Z,2.6
2022-10-25T11:49:24.295Z,2.2
2022-10-25T11:50:37.035Z,2.2
2022-10-25T11:51:46.784Z,2.4
2022-10-25T11:52:58.919Z,2.2
2022-10-25T11:54:11.099Z,2.1
2022-10-25T11:55:18.328Z,2
2022-10-25T11:56:28.100Z,2.1
2022-10-25T11:57:38.897Z,2.2
2022-10-25T11:58:45.727Z,2
2022-10-25T12:00:00.547Z,2.4
2022-10-25T12:01:10.263Z,2
2022-10-25T12:02:20.832Z,2.5
2022-10-25T12:03:35.275Z,2
2022-10-25T12:04:50.215Z,2.2
2022-10-25T12:05:59.701Z,2.1
2022-10-25T12:07:19.740Z,2.1
2022-10-25T12:08:32.304Z,2.4
2022-10-25T12:09:41.968Z,2.3
2022-10-25T12:10:49.105Z,2.3
2022-10-25T12:11:53.354Z,2.4
2022-10-25T12:13:02.894Z,2.2
2022-10-25T12:14:17.695Z,2.4
2022-10-25T12:15:24.312Z,2.6
2022-10-25T12:16:37.357Z,2.3
2022-10-25T12:17:41.667Z,2.5
2022-10-25T12:18:45.773Z,2.5
2022-10-25T12:19:50.375Z,2.2
2022-10-25T12:20:54.916Z,2.5
2022-10-25T12:22:00.851Z,2.3
2022-10-25T12:23:06.601Z,2.2
2022-10-25T12:24:11.215Z,2.2
2022-10-25T12:25:21.572Z,2.3
2022-10-25T12:26:31.164Z,2
2022-10-25T12:27:35.807Z,2.3
2022-10-25T12:28:39.833Z,2.2
2022-10-25T12:29:46.897Z,2.3
2022-10-25T12:30:54.084Z,2.5
2022-10-25T12:32:00.788Z,2.2
2022-10-25T12:33:05.741Z,2.2
2022-10-25T12:34:15.241Z,2.7
2022-10-25T12:35:19.593Z,2.4
2022-10-25T12:36:23.739Z,2.4
2022-10-25T12:37:35.962Z,2.1
2022-10-25T12:38:40.551Z,2.4
2022-10-25T12:39:44.587Z,2
2022-10-25T12:40:50.129Z,2
2022-10-25T12:41:54.960Z,2
2022-10-25T12:42:59.464Z,2
2022-10-25T12:44:06.796Z,1.9
2022-10-25T12:45:16.472Z,1.9
2022-10-25T12:46:31.431Z,2
2022-10-25T12:47:48.215Z,2.1
2022-10-25T12:49:00.180Z,2.1
2022-10-25T12:50:12.351Z,2.1
2022-10-25T12:51:21.456Z,2.1
2022-10-25T12:52:36.231Z,2.2
2022-10-25T12:53:40.448Z,2.4
2022-10-25T12:54:50.176Z,2.1
2022-10-25T12:56:04.815Z,2.4
2022-10-25T12:57:14.507Z,2
2022-10-25T12:58:24.133Z,2.4
2022-10-25T12:59:33.428Z,2.3
2022-10-25T13:00:43.460Z,2.3
2022-10-25T13:01:52.868Z,1.8
2022-10-25T13:03:05.148Z,2
2022-10-25T13:04:14.789Z,1.9
2022-10-25T13:05:29.575Z,1.8
2022-10-25T13:06:36.955Z,2
2022-10-25T13:07:42.663Z,2.2
2022-10-25T13:08:47.051Z,1.9
2022-10-25T13:09:51.648Z,1.9
2022-10-25T13:10:56.376Z,2.7
2022-10-25T13:12:00.973Z,2.9
2022-10-25T13:13:08.020Z,2.4
2022-10-25T13:14:17.933Z,2.3
2022-10-25T13:15:32.396Z,2.2
2022-10-25T13:16:41.747Z,2.2
2022-10-25T13:17:46.295Z,2.5
2022-10-25T13:19:00.911Z,2.4
2022-10-25T13:20:13.367Z,2.6
2022-10-25T13:21:23.803Z,2.8
2022-10-25T13:22:38.857Z,3.5
2022-10-25T13:23:40.763Z,4.4
2022-10-25T13:24:48.054Z,4.2
2022-10-25T13:25:52.675Z,3
2022-10-25T13:26:57.187Z,2.2
2022-10-25T13:28:11.959Z,1.9
2022-10-25T13:29:15.991Z,2
2022-10-25T13:30:31.885Z,2.7
2022-10-25T13:31:35.379Z,2.4
2022-10-25T13:32:42.763Z,2.8
2022-10-25T13:33:47.635Z,2.8
2022-10-25T13:34:51.919Z,2.5
2022-10-25T13:35:56.887Z,2.8
2022-10-25T13:37:01.492Z,3
2022-10-25T13:38:05.855Z,2.9
2022-10-25T13:39:10.168Z,2.7
2022-10-25T13:41:22.944Z,2.9
2022-10-25T13:42:27.027Z,3.5
2022-10-25T13:43:37.330Z,3.1
2022-10-25T13:44:52.023Z,2.7
2022-10-25T13:46:04.367Z,2.7
2022-10-25T13:47:08.327Z,2.5
2022-10-25T13:48:23.247Z,2.4
2022-10-25T13:49:30.335Z,2.4
2022-10-25T13:50:34.432Z,2.4
2022-10-25T13:51:45.779Z,2.3
2022-10-25T13:52:50.610Z,2.4
2022-10-25T13:54:00.851Z,2.4
2022-10-25T13:55:05.159Z,2.7
2022-10-25T13:56:09.731Z,3
2022-10-25T13:57:21.943Z,3.2
2022-10-25T13:58:36.790Z,3.7
2022-10-25T13:59:40.911Z,2.8
2022-10-25T14:00:49.768Z,2.7
2022-10-25T14:01:52.800Z,2.8
2022-10-25T14:02:56.635Z,2.7
2022-10-25T14:04:08.823Z,2.8
2022-10-25T14:05:23.809Z,2.6
2022-10-25T14:06:33.419Z,2.9
2022-10-25T14:07:37.935Z,2.6
2022-10-25T14:08:42.167Z,2.5
2022-10-25T14:09:51.756Z,2.9
2022-10-25T14:10:55.847Z,3.1
2022-10-25T14:12:11.145Z,2.9
2022-10-25T14:13:12.168Z,2.1
2022-10-25T14:14:16.381Z,2.7
2022-10-25T14:15:38.415Z,4.5
2022-10-25T14:16:53.015Z,6.6
2022-10-25T14:18:05.397Z,6.4
2022-10-25T14:19:09.827Z,3.5
2022-10-25T14:20:20.135Z,2.7
2022-10-25T14:21:30.279Z,2.8
2022-10-25T14:22:34.479Z,2.6
2022-10-25T14:23:44.296Z,2.8
2022-10-25T14:24:48.707Z,2.4
2022-10-25T14:25:52.879Z,2.4
2022-10-25T14:26:57.032Z,2.9
2022-10-25T14:28:03.811Z,2.9
2022-10-25T14:29:13.360Z,2.7
2022-10-25T14:31:29.780Z,2.7
2022-10-25T14:32:34.307Z,2.3
2022-10-25T14:33:41.026Z,2.6
2022-10-25T14:34:53.107Z,2.6
2022-10-25T14:35:57.184Z,2.6
2022-10-25T14:37:06.483Z,2.5
2022-10-25T14:38:10.540Z,2.5
2022-10-25T14:39:14.687Z,2.8
2022-10-25T14:40:18.727Z,2.9
2022-10-25T14:41:23.791Z,3.2
2022-10-25T14:42:32.971Z,3.1
2022-10-25T14:43:37.724Z,3
2022-10-25T14:44:42.403Z,3.2
2022-10-25T14:45:47.035Z,3.1
2022-10-25T14:46:59.134Z,3.3
2022-10-25T14:48:03.199Z,3.9
2022-10-25T14:49:10.401Z,3.7
2022-10-25T14:50:14.551Z,3.3
2022-10-25T14:51:18.638Z,3.3
2022-10-25T14:52:25.947Z,3.4
2022-10-25T14:53:30.451Z,3.1
2022-10-25T14:54:35.737Z,2.7
2022-10-25T14:55:40.216Z,2.7
2022-10-25T14:56:49.823Z,3
2022-10-25T14:57:58.852Z,3
2022-10-25T14:59:03.126Z,2.8
2022-10-25T15:00:07.774Z,3.1
2022-10-25T15:01:18.110Z,2.9
2022-10-25T15:02:22.027Z,3.3
2022-10-25T15:03:29.823Z,3.7
2022-10-25T15:04:34.361Z,3.6
2022-10-25T15:05:39.783Z,3.7
2022-10-25T15:06:44.141Z,4.3
2022-10-25T15:07:48.679Z,4.3
2022-10-25T15:09:10.362Z,4.5
2022-10-25T15:10:00.197Z,4.4
2022-10-25T15:11:06.749Z,4.9
2022-10-25T15:12:10.222Z,5.4
2022-10-25T15:13:14.331Z,5.6
2022-10-25T15:14:25.967Z,5.8
2022-10-25T15:15:30.518Z,6.4
2022-10-25T15:16:39.855Z,11.4
2022-10-25T15:17:43.956Z,7.6
2022-10-25T15:18:51.083Z,5.8
2022-10-25T15:20:03.267Z,5.3
2022-10-25T15:21:13.034Z,6.3
2022-10-25T15:22:17.103Z,6
2022-10-25T15:23:21.199Z,5.7
2022-10-25T15:24:25.295Z,6.6
2022-10-25T15:25:30.775Z,8.9
2022-10-25T15:26:36.864Z,7.6
2022-10-25T15:27:39.232Z,7.1
2022-10-25T15:28:43.788Z,8
2022-10-25T15:30:55.747Z,6.1
2022-10-25T15:32:00.159Z,5.7
2022-10-25T15:33:04.643Z,5.4
2022-10-25T15:34:11.359Z,5.9
2022-10-25T15:35:15.672Z,5.7
2022-10-25T15:36:21.718Z,5.6
2022-10-25T15:37:26.318Z,5.5
2022-10-25T15:38:42.332Z,5.6
2022-10-25T15:39:35.419Z,6
2022-10-25T15:40:39.478Z,6.2
2022-10-25T15:41:49.820Z,6.6
2022-10-25T15:42:54.287Z,6.6
2022-10-25T15:43:58.367Z,6.1
2022-10-25T15:45:02.442Z,6.8
2022-10-25T15:46:08.743Z,7
2022-10-25T15:47:26.785Z,7.1
2022-10-25T15:48:34.067Z,7.2
2022-10-25T15:49:38.202Z,7.5
2022-10-25T15:50:42.335Z,8.1
2022-10-25T15:51:52.214Z,8.6
2022-10-25T15:53:07.838Z,8.9
2022-10-25T15:54:12.340Z,9.3
2022-10-25T15:55:16.563Z,9.2
2022-10-25T15:56:23.648Z,9.9
2022-10-25T15:57:27.950Z,9
2022-10-25T15:58:34.850Z,9.5
2022-10-25T15:59:39.014Z,11.6
2022-10-25T16:00:45.783Z,14.2
2022-10-25T16:01:50.360Z,18.8
2022-10-25T16:02:54.929Z,13.8
2022-10-25T16:04:04.834Z,12.7
2022-10-25T16:05:09.161Z,11.7
2022-10-25T16:08:14.447Z,10.2
2022-10-25T16:09:50.522Z,10.2
2022-10-25T16:10:54.746Z,9.1
2022-10-25T16:11:59.263Z,10.2
2022-10-25T16:13:09.611Z,9.4
2022-10-25T16:14:17.135Z,9.6
2022-10-25T16:15:27.005Z,9.8
2022-10-25T16:16:45.861Z,10.6
2022-10-25T16:17:36.207Z,10.3
2022-10-25T16:18:58.588Z,9.7
2022-10-25T16:20:01.242Z,10.3
2022-10-25T16:21:18.719Z,9.4
2022-10-25T16:22:22.970Z,9.5
2022-10-25T16:23:27.077Z,9
2022-10-25T16:24:32.788Z,9.3
2022-10-25T16:25:37.412Z,8.8
2022-10-25T16:26:52.806Z,9.4
2022-10-25T16:27:57.218Z,9.4
2022-10-25T16:29:01.435Z,9.5
2022-10-25T16:30:10.841Z,9.5
2022-10-25T16:31:18.154Z,10.1
2022-10-25T16:32:32.786Z,10.1
2022-10-25T16:33:37.094Z,10.1
2022-10-25T16:34:41.111Z,9.9
2022-10-25T16:37:41.494Z,10.2
2022-10-25T16:38:46.312Z,10.6
2022-10-25T16:39:50.618Z,10.5
2022-10-25T16:40:55.023Z,10.3
2022-10-25T16:42:02.739Z,11.2
2022-10-25T16:43:07.960Z,11.3
2022-10-25T16:44:12.659Z,10.8
2022-10-25T16:45:17.203Z,10.9
2022-10-25T16:46:25.143Z,11
2022-10-25T16:49:32.658Z,11.8
2022-10-25T16:50:37.046Z,14.4
2022-10-25T16:51:41.235Z,15.3
2022-10-25T16:52:46.015Z,19.1
2022-10-25T16:55:52.911Z,32.6
2022-10-25T16:56:57.170Z,32.1
2022-10-25T16:58:01.648Z,33
2022-10-25T16:59:06.278Z,31.5
2022-10-25T17:00:10.743Z,23.9
2022-10-25T17:01:18.032Z,21.2
2022-10-25T17:02:22.219Z,18.1
2022-10-25T17:03:26.374Z,18
2022-10-25T17:04:30.911Z,17.3
2022-10-25T17:05:38.753Z,17.6
2022-10-25T17:06:43.269Z,18.7
2022-10-25T17:07:47.742Z,17.9
2022-10-25T17:08:52.270Z,21.7
2022-10-25T17:09:56.462Z,19.8
2022-10-25T17:12:36.799Z,21.9
2022-10-25T17:13:46.346Z,21.4
2022-10-25T17:14:50.567Z,21.2
2022-10-25T17:15:55.070Z,22
2022-10-25T17:17:02.235Z,21.1
2022-10-25T17:19:06.360Z,21.1
2022-10-25T17:20:46.489Z,21.1
2022-10-25T17:21:50.749Z,20.4
2022-10-25T17:22:55.788Z,21.9
2022-10-25T17:24:00.504Z,21.5
2022-10-25T17:25:04.973Z,22.6
2022-10-25T17:26:15.909Z,24
2022-10-25T17:27:20.382Z,23.1
2022-10-25T17:28:33.655Z,23.4
2022-10-25T17:29:38.385Z,23.4